aviador You're here:

VEGY Decoded Metar

GAYA in INDIA
Report Time2017-09-23 11:00:00
UTC Time2017-09-23 11:12:08
Flight Rules mvfr MVFR
Wind350° at 03 kt
W.Decomp.*RWY 28: 1.0 kt HW 2.8 kt RCW
W.Rank350° ranks 27
Current wind is below 350° avg. (4.1)
Visibility7000 m
Phenomena:N/A
Clouds:Scattered 018 Hf
Scattered 025 Hf
Expected CloudBase > 2,400 ft AGL from Temp-Dew spread
CeilingNone
Temp32°C (ISA +18)
Dew Point26°C (71% RH)
Heat Index40.8°C
QNH1006 hPa
Density Alt3,084 ft
Elevation381 ft
Report Wrong Elevation
Raw Report
METAR VEGY 231100Z 35003KT 7000 SCT018 SCT025 32/26 Q1006 =

Extra information for VEGY:More info

Airport Information Weather charts Add Link Nearby Venues Social comments